Time;durP1;ratioP1;P1;durP2;ratioP2;P2;SDS_P1;SDS_P2;PMS_P1;PMS_P2;Temp;Humidity;BMP_temperature;BMP_pressure;BME280_temperature;BME280_humidity;BME280_pressure;Samples;Min_cycle;Max_cycle;Signal;HPM_P1;HPM_P2
2022/12/08 00:01:45;;;;;;;;;51.00;45.00;;;;;7.01;75.77;100920.63;5027103;28;49921;-84
2022/12/08 00:04:10;;;;;;;;;48.00;39.67;;;;;6.98;75.65;100916.13;5029133;28;45806;-88
2022/12/08 00:09:50;;;;;;;;;55.25;42.00;;;;;7.03;75.79;100916.38;5028925;28;45603;-81
2022/12/08 00:12:15;;;;;;;;;58.00;45.00;;;;;6.84;75.94;100881.47;5030629;28;50996;-84
2022/12/08 00:14:41;;;;;;;;;55.00;43.25;;;;;7.04;76.14;100908.59;5028527;28;45496;-86
2022/12/08 00:17:09;;;;;;;;;56.25;48.00;;;;;7.05;76.00;100897.34;5028566;28;45574;-82
2022/12/08 00:19:35;;;;;;;;;57.50;46.50;;;;;7.08;76.13;100901.81;5029287;28;45650;-82
2022/12/08 00:22:02;;;;;;;;;59.00;47.00;;;;;6.91;75.87;100861.78;5028689;28;45499;-85
2022/12/08 00:24:33;;;;;;;;;57.25;46.50;;;;;7.07;75.92;100893.09;5028939;28;45484;-79
2022/12/08 00:27:00;;;;;;;;;56.50;45.75;;;;;6.94;75.69;100868.03;5028841;28;45591;-79
2022/12/08 00:29:26;;;;;;;;;54.50;44.50;;;;;7.01;75.62;100887.56;5028811;28;45463;-79
2022/12/08 00:31:51;;;;;;;;;53.75;43.25;;;;;6.71;75.83;100837.25;5028313;28;46148;-80
2022/12/08 00:34:17;;;;;;;;;57.75;46.50;;;;;6.77;75.90;100855.84;5028725;28;45741;-84
2022/12/08 00:36:42;;;;;;;;;57.50;45.50;;;;;6.83;76.03;100855.25;5028948;28;45423;-86
2022/12/08 00:39:09;;;;;;;;;58.75;47.25;;;;;6.94;75.74;100877.59;5028477;28;45806;-80
2022/12/08 00:44:18;;;;;;;;;58.75;48.00;;;;;6.94;75.64;100872.38;5028694;28;45422;-83
2022/12/08 00:46:45;;;;;;;;;59.00;46.33;;;;;6.72;75.53;100839.03;5028342;28;45789;-81
2022/12/08 00:49:11;;;;;;;;;56.75;46.25;;;;;6.85;75.80;100866.72;5010462;28;45577;-79
2022/12/08 00:51:36;;;;;;;;;58.25;48.25;;;;;6.69;76.08;100839.78;5030316;28;45553;-80
2022/12/08 00:54:03;;;;;;;;;56.75;43.50;;;;;6.79;75.95;100866.38;5031539;28;45552;-85
2022/12/08 00:56:29;;;;;;;;;55.25;44.75;;;;;6.72;76.05;100844.28;5032272;28;45466;-84
2022/12/08 00:58:54;;;;;;;;;51.50;42.50;;;;;6.36;75.91;100786.72;5031520;28;45502;-80
2022/12/08 01:01:20;;;;;;;;;52.67;40.67;;;;;6.72;75.89;100855.59;5013333;28;54375;-85
2022/12/08 01:03:45;;;;;;;;;49.25;41.00;;;;;6.70;75.98;100852.03;5031808;28;45725;-86
2022/12/08 01:06:10;;;;;;;;;56.75;43.50;;;;;6.72;76.16;100859.94;5031566;28;45739;-82
2022/12/08 01:08:37;;;;;;;;;47.25;40.00;;;;;6.69;76.02;100854.53;5031732;28;45610;-80
2022/12/08 01:11:06;;;;;;;;;45.00;39.25;;;;;6.66;76.30;100852.69;5031427;28;45676;-79
2022/12/08 01:13:32;;;;;;;;;52.75;40.25;;;;;6.54;76.36;100827.63;5030101;28;46878;-80
2022/12/08 01:15:57;;;;;;;;;49.50;43.50;;;;;6.41;76.40;100792.19;5031549;28;45622;-79
2022/12/08 01:18:23;;;;;;;;;51.00;41.00;;;;;6.41;76.52;100784.34;5031042;28;60115;-79
2022/12/08 01:20:48;;;;;;;;;58.50;42.25;;;;;6.59;76.18;100810.50;5031413;28;45613;-82
2022/12/08 01:23:14;;;;;;;;;44.00;37.33;;;;;6.48;76.25;100796.91;5030409;28;65377;-80
2022/12/08 01:25:39;;;;;;;;;49.75;40.75;;;;;6.72;75.93;100850.38;5031637;28;45509;-83
2022/12/08 01:28:04;;;;;;;;;44.75;38.75;;;;;6.57;76.28;100825.19;5031167;28;45669;-79
2022/12/08 01:30:30;;;;;;;;;47.25;38.50;;;;;6.68;76.31;100837.09;5030824;28;45402;-81
2022/12/08 01:32:55;;;;;;;;;49.67;42.00;;;;;6.72;76.17;100841.66;5031007;28;45686;-81
2022/12/08 01:35:21;;;;;;;;;52.75;43.50;;;;;6.69;76.07;100831.94;5031511;28;45548;-81
2022/12/08 01:37:46;;;;;;;;;48.00;41.50;;;;;6.51;76.28;100799.69;5030793;28;47514;-79
2022/12/08 01:40:11;;;;;;;;;48.33;40.33;;;;;6.65;76.19;100829.09;5031446;28;46442;-80
2022/12/08 01:42:37;;;;;;;;;46.25;38.75;;;;;6.56;76.42;100807.75;5031345;28;45763;-80
2022/12/08 01:45:34;;;;;;;;;45.25;38.25;;;;;6.43;75.94;100800.97;5029357;28;45350;-79
2022/12/08 01:48:08;;;;;;;;;49.00;41.25;;;;;6.34;76.12;100782.22;5007246;28;46012;-80
2022/12/08 01:50:34;;;;;;;;;50.25;39.00;;;;;6.47;76.18;100813.38;5031310;28;45494;-84
2022/12/08 01:53:31;;;;;;;;;45.00;38.00;;;;;6.42;76.09;100801.81;5030059;28;45680;-85
2022/12/08 01:56:10;;;;;;;;;47.00;38.75;;;;;6.51;76.44;100815.34;5022647;28;45542;-82
2022/12/08 01:58:40;;;;;;;;;48.75;40.75;;;;;6.50;76.28;100810.91;5031491;28;45434;-85
2022/12/08 02:01:06;;;;;;;;;49.25;39.25;;;;;6.32;76.48;100794.31;5029929;28;45573;-84
2022/12/08 02:03:41;;;;;;;;;47.00;40.25;;;;;6.33;76.34;100803.94;5030433;28;45853;-85
2022/12/08 02:06:08;;;;;;;;;46.50;38.75;;;;;6.40;76.38;100813.88;5030707;28;45430;-83
2022/12/08 02:08:35;;;;;;;;;44.25;40.00;;;;;6.25;76.49;100802.63;5030921;28;45750;-84
2022/12/08 02:11:00;;;;;;;;;43.00;39.00;;;;;6.35;76.52;100816.22;5030351;28;45937;-86
2022/12/08 02:13:26;;;;;;;;;55.75;44.00;;;;;6.03;76.35;100761.47;5030889;28;45495;-85
2022/12/08 02:15:51;;;;;;;;;40.50;37.50;;;;;6.36;76.55;100810.22;5045440;28;45405;-85
2022/12/08 02:18:38;;;;;;;;;50.33;40.33;;;;;6.38;76.47;100815.50;5030972;28;45802;-85
2022/12/08 02:21:18;;;;;;;;;52.00;38.50;;;;;6.37;76.49;100819.84;5030584;28;46130;-84
2022/12/08 02:24:14;;;;;;;;;53.25;42.00;;;;;6.24;76.64;100798.22;5030181;28;45419;-86
2022/12/08 02:27:04;;;;;;;;;52.25;42.00;;;;;6.41;76.43;100823.50;5030671;28;45316;-80
2022/12/08 02:29:51;;;;;;;;;45.75;38.75;;;;;6.42;76.42;100817.47;5030531;28;45522;-85
2022/12/08 02:32:54;;;;;;;;;44.75;38.75;;;;;6.37;76.28;100809.41;5030126;28;45647;-82
2022/12/08 02:36:04;;;;;;;;;50.00;40.50;;;;;6.46;76.31;100824.66;4985512;28;45818;-80
2022/12/08 02:38:44;;;;;;;;;48.25;40.25;;;;;6.28;76.38;100792.34;5010785;28;45787;-80
2022/12/08 02:41:19;;;;;;;;;49.75;41.25;;;;;6.43;76.15;100816.66;4992627;28;45835;-79
2022/12/08 02:43:51;;;;;;;;;52.25;42.00;;;;;6.37;76.21;100800.66;5010196;28;45515;-81
2022/12/08 02:46:28;;;;;;;;;44.50;40.00;;;;;6.17;76.07;100760.47;5009497;28;45384;-82
2022/12/08 02:48:55;;;;;;;;;49.75;41.75;;;;;6.40;76.19;100800.81;5010263;28;45635;-82
2022/12/08 02:51:21;;;;;;;;;49.00;41.75;;;;;6.38;75.90;100794.63;5010519;28;45532;-84
2022/12/08 02:53:47;;;;;;;;;53.50;40.50;;;;;6.28;75.97;100774.09;5008684;28;47186;-83
2022/12/08 02:56:34;;;;;;;;;43.00;37.75;;;;;6.06;76.16;100744.28;5010267;28;46263;-80
2022/12/08 02:58:59;;;;;;;;;43.00;33.50;;;;;6.27;76.28;100782.75;5009853;28;45713;-79
2022/12/08 03:01:31;;;;;;;;;36.00;33.67;;;;;6.26;76.22;100784.47;5010072;28;45427;-79
2022/12/08 03:04:04;;;;;;;;;38.50;33.00;;;;;6.14;76.25;100776.84;5009818;28;46297;-81
2022/12/08 03:06:41;;;;;;;;;39.25;32.25;;;;;6.21;76.13;100780.72;5009929;28;45624;-85
2022/12/08 03:09:26;;;;;;;;;42.50;35.50;;;;;5.96;76.10;100742.00;5010032;28;45868;-81
2022/12/08 03:12:02;;;;;;;;;40.25;37.75;;;;;6.16;75.80;100775.25;5009951;28;45471;-83
2022/12/08 03:14:30;;;;;;;;;47.00;38.50;;;;;5.87;76.11;100737.16;5009853;28;46200;-81
2022/12/08 03:16:58;;;;;;;;;39.00;34.25;;;;;5.90;75.83;100750.34;5009456;28;45815;-79
2022/12/08 03:19:28;;;;;;;;;43.25;37.75;;;;;5.90;76.01;100762.47;5010432;28;45756;-85
2022/12/08 03:22:06;;;;;;;;;38.75;33.25;;;;;5.79;76.22;100750.59;5009357;28;45481;-78
2022/12/08 03:24:37;;;;;;;;;35.00;29.50;;;;;5.73;76.07;100742.44;5009846;28;45723;-78
2022/12/08 03:27:07;;;;;;;;;42.50;38.00;;;;;5.73;76.40;100758.09;5009502;28;45948;-78
2022/12/08 03:29:33;;;;;;;;;36.25;32.00;;;;;5.71;76.52;100747.56;5010125;28;45364;-79
2022/12/08 03:32:32;;;;;;;;;40.75;36.25;;;;;5.69;76.31;100743.97;4991291;28;45495;-78
2022/12/08 03:35:00;;;;;;;;;28.25;25.25;;;;;5.70;76.52;100754.47;4996073;28;45505;-79
2022/12/08 03:37:27;;;;;;;;;40.25;31.75;;;;;5.71;76.59;100742.34;5029597;28;45742;-79
2022/12/08 03:39:52;;;;;;;;;34.00;28.75;;;;;5.61;76.49;100720.09;5029447;28;45491;-78
2022/12/08 03:42:18;;;;;;;;;36.75;31.25;;;;;5.72;76.56;100738.06;5029487;28;45304;-78
2022/12/08 03:44:43;;;;;;;;;35.75;32.25;;;;;5.47;76.46;100695.03;5029021;28;46548;-79
2022/12/08 03:47:08;;;;;;;;;36.00;32.00;;;;;5.78;76.49;100736.66;5028211;28;55844;-79
2022/12/08 03:49:34;;;;;;;;;33.33;30.00;;;;;5.52;76.63;100690.94;5029687;28;45409;-79
2022/12/08 03:51:59;;;;;;;;;27.33;25.00;;;;;5.48;76.28;100673.34;5029093;28;45721;-82
2022/12/08 03:54:25;;;;;;;;;34.25;26.50;;;;;5.62;76.26;100684.53;5029394;28;50293;-78
2022/12/08 03:56:50;;;;;;;;;31.50;27.50;;;;;5.54;76.39;100672.78;5029221;28;45732;-80
2022/12/08 03:59:15;;;;;;;;;34.33;31.00;;;;;5.50;76.39;100671.69;5028555;28;45462;-79
2022/12/08 04:01:41;;;;;;;;;35.75;27.25;;;;;5.54;76.62;100678.00;5028754;28;45403;-80
2022/12/08 04:04:06;;;;;;;;;27.25;24.25;;;;;5.59;76.45;100679.13;5028858;28;46692;-81
2022/12/08 04:06:31;;;;;;;;;30.50;26.50;;;;;5.60;76.45;100679.19;5029077;28;45502;-80
2022/12/08 04:08:57;;;;;;;;;30.50;27.75;;;;;5.80;76.19;100708.94;5028545;28;57673;-85
2022/12/08 04:11:22;;;;;;;;;30.25;28.75;;;;;5.81;76.35;100715.03;5029201;28;46437;-84
2022/12/08 04:13:48;;;;;;;;;15.67;15.00;;;;;5.76;76.14;100699.16;5027998;28;60137;-84
2022/12/08 04:16:19;;;;;;;;;25.50;22.50;;;;;5.70;75.98;100694.50;5028619;28;45884;-85
2022/12/08 04:18:44;;;;;;;;;27.25;24.00;;;;;5.80;76.33;100708.03;5028792;28;45726;-85
2022/12/08 04:21:09;;;;;;;;;24.75;22.50;;;;;5.82;76.22;100711.66;5028387;28;45381;-84
2022/12/08 04:23:35;;;;;;;;;23.00;21.25;;;;;5.82;76.08;100706.44;5028893;28;45474;-83
2022/12/08 04:26:00;;;;;;;;;27.00;23.75;;;;;5.82;76.25;100711.66;5029488;28;45647;-84
2022/12/08 04:28:28;;;;;;;;;30.33;26.33;;;;;5.77;76.35;100690.53;5032080;28;53330;-84
2022/12/08 04:30:53;;;;;;;;;25.25;22.00;;;;;5.84;76.46;100696.97;5032097;28;45594;-84
2022/12/08 04:33:19;;;;;;;;;26.75;24.25;;;;;5.86;76.23;100692.72;5032602;28;46135;-85
2022/12/08 04:35:44;;;;;;;;;25.33;21.33;;;;;5.95;76.43;100703.66;5031613;28;53106;-85
2022/12/08 04:38:09;;;;;;;;;23.50;20.75;;;;;5.96;76.09;100700.25;5032066;28;45718;-80
2022/12/08 04:40:35;;;;;;;;;23.50;19.75;;;;;5.97;75.87;100698.53;5014514;28;45388;-81
2022/12/08 04:43:00;;;;;;;;;25.75;22.75;;;;;5.74;75.92;100666.00;5031055;28;51089;-82
2022/12/08 04:45:25;;;;;;;;;30.67;25.33;;;;;5.85;75.93;100701.34;5031340;28;66644;-81
2022/12/08 04:47:51;;;;;;;;;28.33;23.67;;;;;5.61;76.20;100649.69;5031540;28;48376;-84
2022/12/08 04:50:16;;;;;;;;;25.67;21.67;;;;;5.84;75.91;100695.25;5032157;28;45389;-83
2022/12/08 04:52:41;;;;;;;;;29.00;26.00;;;;;5.79;75.82;100688.00;5032055;28;45575;-79
2022/12/08 04:55:07;;;;;;;;;21.25;20.00;;;;;5.53;76.06;100640.59;5031774;28;45372;-79
2022/12/08 04:57:33;;;;;;;;;32.25;27.00;;;;;5.71;76.18;100664.13;5031882;28;45556;-83
2022/12/08 04:59:58;;;;;;;;;25.25;21.00;;;;;5.60;76.21;100658.34;5031708;28;45510;-84
2022/12/08 05:02:23;;;;;;;;;25.67;22.67;;;;;5.53;75.86;100648.41;5031385;28;47922;-85
2022/12/08 05:04:48;;;;;;;;;29.75;24.75;;;;;5.62;76.25;100668.88;5031175;28;45829;-82
2022/12/08 05:07:14;;;;;;;;;20.00;18.00;;;;;5.69;76.01;100686.63;5031729;28;46240;-83
2022/12/08 05:09:39;;;;;;;;;25.25;23.25;;;;;5.46;76.32;100648.88;5032096;28;45801;-78
2022/12/08 05:12:05;;;;;;;;;27.33;25.67;;;;;5.66;76.27;100683.84;5031293;28;46328;-82
2022/12/08 05:14:30;;;;;;;;;23.75;20.00;;;;;5.50;76.36;100656.06;5032176;28;45452;-82
2022/12/08 05:16:55;;;;;;;;;24.00;21.00;;;;;5.65;76.41;100677.72;5031136;28;45432;-82
2022/12/08 05:19:21;;;;;;;;;23.75;23.00;;;;;5.69;76.55;100671.88;5031549;28;46136;-83
2022/12/08 05:21:46;;;;;;;;;31.25;26.75;;;;;5.61;76.38;100654.91;5031228;28;46062;-83
2022/12/08 05:24:12;;;;;;;;;26.50;22.00;;;;;5.75;76.25;100667.78;5031662;28;45555;-78
2022/12/08 05:26:37;;;;;;;;;25.00;23.00;;;;;5.54;76.33;100628.47;5032064;28;46597;-84
2022/12/08 05:29:02;;;;;;;;;30.33;25.67;;;;;5.81;76.00;100670.72;5013478;28;45521;-84
2022/12/08 05:31:28;;;;;;;;;27.00;20.50;;;;;5.76;76.29;100673.06;5030160;28;47484;-81
2022/12/08 05:33:53;;;;;;;;;26.50;22.50;;;;;5.76;76.00;100664.34;5031490;28;45494;-79
2022/12/08 05:36:19;;;;;;;;;23.00;22.25;;;;;5.67;76.12;100643.94;5031866;28;45679;-85
2022/12/08 05:38:45;;;;;;;;;28.75;24.50;;;;;5.75;76.10;100660.84;5030335;28;45536;-80
2022/12/08 05:41:17;;;;;;;;;24.75;22.00;;;;;5.75;76.36;100657.34;5030986;28;45406;-79
2022/12/08 05:43:42;;;;;;;;;27.75;24.50;;;;;5.70;75.98;100662.31;5031193;28;45942;-80
2022/12/08 05:46:09;;;;;;;;;27.00;20.33;;;;;5.44;75.97;100622.75;5031066;28;46214;-81
2022/12/08 05:48:34;;;;;;;;;29.25;27.75;;;;;5.59;76.10;100650.44;5031510;28;45371;-79
2022/12/08 05:51:03;;;;;;;;;31.50;27.25;;;;;5.63;76.22;100660.22;5045900;28;46202;-80
2022/12/08 05:53:28;;;;;;;;;24.25;22.75;;;;;5.53;76.35;100631.88;5031529;28;45857;-78
2022/12/08 05:55:54;;;;;;;;;25.75;22.50;;;;;5.57;75.88;100649.50;5030809;28;45753;-79
2022/12/08 05:58:21;;;;;;;;;22.25;19.25;;;;;5.66;75.75;100665.59;5030862;28;45727;-79
2022/12/08 06:00:47;;;;;;;;;29.25;20.75;;;;;5.48;75.85;100641.19;5030317;28;45742;-80
2022/12/08 06:03:15;;;;;;;;;27.25;22.25;;;;;5.59;76.31;100653.94;5030697;28;45437;-79
2022/12/08 06:05:41;;;;;;;;;14.00;13.50;;;;;5.66;76.12;100653.47;5030939;28;45378;-85
2022/12/08 06:08:07;;;;;;;;;28.75;24.00;;;;;5.72;76.11;100663.31;5046408;28;45815;-83
2022/12/08 06:10:33;;;;;;;;;22.50;19.75;;;;;5.75;75.80;100655.66;5031269;28;45734;-79
2022/12/08 06:12:58;;;;;;;;;22.75;20.00;;;;;5.75;75.94;100659.97;5030180;28;45478;-82
2022/12/08 06:15:24;;;;;;;;;26.75;24.00;;;;;5.69;75.96;100656.22;5030643;28;45370;-84
2022/12/08 06:17:49;;;;;;;;;23.25;20.75;;;;;5.63;75.75;100645.47;5030627;28;45642;-84
2022/12/08 06:20:14;;;;;;;;;21.50;19.25;;;;;5.65;75.86;100659.47;5029899;28;45621;-82
2022/12/08 06:22:40;;;;;;;;;22.75;17.50;;;;;5.64;76.08;100656.81;5030630;28;45692;-85
2022/12/08 06:25:05;;;;;;;;;18.25;16.25;;;;;5.62;76.16;100646.31;5030552;28;45695;-86
2022/12/08 06:27:32;;;;;;;;;15.50;15.00;;;;;5.51;76.05;100618.75;5030685;28;45457;-83
2022/12/08 06:29:57;;;;;;;;;18.50;16.75;;;;;5.73;75.92;100652.06;5030407;28;46251;-80
2022/12/08 06:32:23;;;;;;;;;18.50;15.25;;;;;5.60;75.83;100628.78;5012097;28;45517;-84
2022/12/08 06:34:48;;;;;;;;;22.00;15.50;;;;;5.76;76.24;100644.38;5029965;28;45661;-81
2022/12/08 06:37:14;;;;;;;;;22.50;19.50;;;;;5.44;75.91;100582.78;5030062;28;45624;-82
2022/12/08 06:39:39;;;;;;;;;21.00;19.50;;;;;5.81;75.83;100649.84;5029832;28;45628;-83
2022/12/08 06:44:50;;;;;;;;;23.50;18.25;;;;;5.77;75.98;100637.50;5030268;28;45598;-85
2022/12/08 06:47:15;;;;;;;;;21.75;17.00;;;;;5.82;75.88;100643.84;5029799;28;45364;-86
2022/12/08 06:49:40;;;;;;;;;21.67;18.67;;;;;5.83;76.02;100643.03;5029258;28;57646;-86
2022/12/08 06:52:06;;;;;;;;;22.33;18.00;;;;;5.86;75.67;100636.25;5029842;28;45542;-85
2022/12/08 06:54:31;;;;;;;;;19.00;14.25;;;;;5.62;75.77;100598.47;5030330;28;45743;-86
2022/12/08 06:56:56;;;;;;;;;24.33;19.67;;;;;5.81;75.87;100634.19;5029502;28;45839;-86
2022/12/08 06:59:24;;;;;;;;;19.00;17.67;;;;;5.77;75.82;100630.56;5029512;28;65519;-86
2022/12/08 07:01:50;;;;;;;;;23.00;18.00;;;;;5.61;75.46;100605.38;5029049;28;45545;-82
2022/12/08 07:04:16;;;;;;;;;21.75;19.75;;;;;5.61;76.02;100609.69;5029051;28;45574;-81
2022/12/08 07:06:41;;;;;;;;;19.50;16.50;;;;;5.76;75.98;100633.97;5029816;28;45340;-81
2022/12/08 07:09:06;;;;;;;;;21.75;18.75;;;;;5.77;75.64;100638.38;5029580;28;46526;-86
2022/12/08 07:11:32;;;;;;;;;17.00;14.50;;;;;5.56;75.82;100604.25;5029810;28;45576;-85
2022/12/08 07:13:57;;;;;;;;;21.67;17.33;;;;;5.75;75.64;100632.16;5011178;28;56949;-85
2022/12/08 07:16:23;;;;;;;;;23.50;16.25;;;;;5.66;75.62;100619.59;5029326;28;45455;-83
2022/12/08 07:18:48;;;;;;;;;22.25;18.50;;;;;5.51;75.58;100583.97;5013248;28;47435;-86
2022/12/08 07:21:15;;;;;;;;;25.00;23.00;;;;;5.80;75.81;100637.63;5029571;28;45364;-86
2022/12/08 07:23:41;;;;;;;;;27.75;23.75;;;;;5.84;75.66;100636.97;5030103;28;45774;-82
2022/12/08 07:26:09;;;;;;;;;19.25;18.00;;;;;5.88;75.91;100628.50;5010608;28;45764;-84
2022/12/08 07:28:36;;;;;;;;;22.75;19.00;;;;;5.92;75.91;100634.00;5029625;28;45516;-83
2022/12/08 07:31:02;;;;;;;;;18.25;15.50;;;;;5.92;75.44;100634.00;5028839;28;45923;-81
2022/12/08 07:33:28;;;;;;;;;23.00;20.00;;;;;5.76;75.31;100612.22;5029207;28;45447;-85
2022/12/08 07:36:02;;;;;;;;;21.00;15.50;;;;;5.88;75.49;100628.50;5029127;28;45685;-84
2022/12/08 07:38:28;;;;;;;;;18.50;15.50;;;;;5.59;74.86;100588.78;5028488;28;46149;-85
2022/12/08 07:40:54;;;;;;;;;21.50;18.25;;;;;5.68;74.79;100612.72;5028925;28;45806;-85
2022/12/08 07:43:20;;;;;;;;;19.00;15.50;;;;;5.74;75.32;100627.78;5029627;28;45514;-86
2022/12/08 07:45:45;;;;;;;;;18.75;14.75;;;;;5.76;75.34;100630.47;5029139;28;45412;-82
2022/12/08 07:48:11;;;;;;;;;18.00;15.00;;;;;5.77;75.19;100629.66;5028062;28;54675;-84
2022/12/08 07:50:37;;;;;;;;;16.50;15.50;;;;;5.76;75.25;100630.47;5029849;28;45533;-82
2022/12/08 07:53:03;;;;;;;;;17.50;15.75;;;;;5.66;75.20;100609.16;5028693;28;45608;-83
2022/12/08 07:55:28;;;;;;;;;21.00;15.50;;;;;5.75;75.27;100626.97;5044654;28;45581;-84
2022/12/08 07:57:53;;;;;;;;;18.33;15.67;;;;;5.77;75.08;100620.13;5029006;28;46144;-83
2022/12/08 08:00:19;;;;;;;;;19.25;17.75;;;;;5.81;75.18;100626.38;5030312;28;45521;-83
2022/12/08 08:02:45;;;;;;;;;21.00;17.75;;;;;5.65;75.12;100585.59;5033224;28;45420;-81
2022/12/08 08:05:11;;;;;;;;;19.50;17.00;;;;;5.72;75.31;100579.88;5033221;28;45442;-81
2022/12/08 08:07:37;;;;;;;;;19.25;18.50;;;;;5.89;75.36;100604.19;5033571;28;46487;-84
2022/12/08 08:10:04;;;;;;;;;22.25;20.00;;;;;5.81;74.80;100576.81;5032800;28;45957;-86
2022/12/08 08:12:29;;;;;;;;;21.25;18.00;;;;;5.83;74.65;100583.03;5032864;28;45804;-80
2022/12/08 08:14:55;;;;;;;;;22.50;18.50;;;;;5.92;74.68;100579.22;5031973;28;45443;-83
2022/12/08 08:17:20;;;;;;;;;16.33;15.67;;;;;6.07;74.67;100605.19;5032167;28;45687;-81
2022/12/08 08:19:45;;;;;;;;;20.00;15.33;;;;;5.79;74.28;100541.97;5032384;28;45520;-82
2022/12/08 08:22:10;;;;;;;;;17.67;15.67;;;;;5.95;74.25;100568.91;5030821;28;45395;-81
2022/12/08 08:24:36;;;;;;;;;20.33;17.33;;;;;6.16;74.23;100600.41;5030767;28;46057;-81
2022/12/08 08:27:01;;;;;;;;;18.25;15.75;;;;;5.99;73.98;100569.97;5030288;28;47164;-80
2022/12/08 08:29:27;;;;;;;;;21.75;18.50;;;;;6.07;74.11;100581.69;5032569;28;45371;-82
2022/12/08 08:31:52;;;;;;;;;26.67;23.67;;;;;6.05;73.59;100567.66;5031195;28;45422;-81
2022/12/08 08:34:17;;;;;;;;;18.00;15.00;;;;;6.26;72.87;100614.81;5031638;28;58066;-82
2022/12/08 08:36:43;;;;;;;;;21.00;14.67;;;;;6.23;73.32;100612.03;5032088;28;46255;-81
2022/12/08 08:39:08;;;;;;;;;20.25;16.50;;;;;6.24;73.31;100605.09;5031841;28;45777;-80
2022/12/08 08:41:34;;;;;;;;;2.75;1.00;;;;;6.29;73.66;100598.41;5032574;28;45440;-81
2022/12/08 08:43:59;;;;;;;;;22.50;17.00;;;;;6.11;73.30;100565.38;5032109;28;45649;-81
2022/12/08 08:46:25;;;;;;;;;18.25;16.50;;;;;6.41;73.30;100599.03;5031960;28;45370;-80
2022/12/08 08:48:50;;;;;;;;;19.00;18.00;;;;;6.41;72.81;100592.06;5031254;28;45392;-81
2022/12/08 08:51:15;;;;;;;;;21.33;18.67;;;;;6.17;72.67;100555.22;5032138;28;49841;-84
2022/12/08 08:53:41;;;;;;;;;19.50;16.50;;;;;6.29;72.98;100567.09;5031921;28;45335;-81
2022/12/08 08:56:11;;;;;;;;;20.25;18.75;;;;;6.29;72.95;100546.22;5031424;28;45376;-84
2022/12/08 08:58:37;;;;;;;;;20.00;18.00;;;;;6.31;72.83;100558.53;5031683;28;45800;-81
2022/12/08 09:01:02;;;;;;;;;22.75;21.00;;;;;6.40;73.00;100563.25;5013191;28;45481;-81
2022/12/08 09:03:28;;;;;;;;;26.50;19.00;;;;;6.38;72.48;100560.59;5031872;28;45577;-82
2022/12/08 09:05:55;;;;;;;;;21.25;19.50;;;;;6.35;72.85;100564.75;5031730;28;45467;-86
2022/12/08 09:08:20;;;;;;;;;19.50;18.75;;;;;6.27;72.59;100540.03;5031965;28;45761;-87
2022/12/08 09:10:45;;;;;;;;;21.50;19.00;;;;;6.57;72.69;100593.69;5031501;28;45439;-84
2022/12/08 09:13:11;;;;;;;;;15.67;11.33;;;;;6.58;72.52;100592.00;5030900;28;56625;-82
2022/12/08 09:15:36;;;;;;;;;22.50;18.75;;;;;6.54;72.27;100593.53;5031075;28;45557;-87
2022/12/08 09:18:01;;;;;;;;;25.00;22.67;;;;;6.55;72.27;100594.44;5031184;28;45518;-85
2022/12/08 09:20:27;;;;;;;;;25.50;21.75;;;;;6.47;72.44;100584.53;5031690;28;45479;-84
2022/12/08 09:22:52;;;;;;;;;24.00;24.00;;;;;6.55;72.26;100592.75;5031092;28;45451;-85
2022/12/08 09:25:17;;;;;;;;;26.33;23.67;;;;;6.57;72.44;100590.19;5029746;28;46199;-85
2022/12/08 09:27:46;;;;;;;;;22.33;19.00;;;;;6.31;72.54;100541.97;5012928;28;45806;-86
2022/12/08 09:30:11;;;;;;;;;25.75;23.25;;;;;6.66;72.46;100583.69;5030508;28;45243;-86
2022/12/08 09:32:37;;;;;;;;;21.25;19.25;;;;;6.64;72.21;100574.00;5031107;28;45573;-87
2022/12/08 09:35:02;;;;;;;;;21.00;18.67;;;;;6.69;72.06;100582.94;5030790;28;45341;-85
2022/12/08 09:37:27;;;;;;;;;22.50;19.25;;;;;6.47;71.81;100557.53;5031604;28;45462;-84
2022/12/08 09:39:53;;;;;;;;;18.00;16.33;;;;;6.57;71.98;100584.97;5030903;28;45394;-85
2022/12/08 09:42:33;;;;;;;;;24.50;23.00;;;;;6.45;71.84;100562.69;5031142;28;45281;-84
2022/12/08 09:45:07;;;;;;;;;23.50;20.50;;;;;6.58;72.00;100577.22;5030504;28;45560;-85
2022/12/08 09:47:45;;;;;;;;;22.00;20.75;;;;;6.57;72.03;100567.59;5029337;28;45929;-86
2022/12/08 09:50:32;;;;;;;;;22.75;18.25;;;;;6.63;72.17;100580.94;5030466;28;45463;-84
2022/12/08 09:53:01;;;;;;;;;20.50;18.75;;;;;6.66;72.03;100582.81;5046016;28;45729;-84
2022/12/08 09:55:48;;;;;;;;;20.75;17.75;;;;;6.70;72.24;100575.19;5029292;28;47861;-86
2022/12/08 09:58:19;;;;;;;;;19.00;17.75;;;;;6.76;71.93;100578.91;5030962;28;45765;-83
2022/12/08 10:00:44;;;;;;;;;20.75;16.00;;;;;6.65;72.07;100549.66;5030454;28;45809;-81
2022/12/08 10:03:13;;;;;;;;;26.33;24.00;;;;;6.59;71.40;100533.72;5030834;28;45545;-84
2022/12/08 10:05:48;;;;;;;;;21.00;17.00;;;;;6.57;71.38;100530.16;5030033;28;64312;-82
2022/12/08 10:08:24;;;;;;;;;25.75;22.25;;;;;6.55;71.63;100524.88;5030207;28;45797;-85
2022/12/08 10:10:58;;;;;;;;;23.00;19.00;;;;;6.77;71.58;100565.91;5030438;28;45815;-85
2022/12/08 10:13:57;;;;;;;;;18.50;17.00;;;;;6.78;71.26;100558.97;5030571;28;45745;-79
2022/12/08 10:16:37;;;;;;;;;14.00;13.75;;;;;6.48;71.52;100504.50;5022281;28;45562;-80
2022/12/08 10:19:21;;;;;;;;;16.00;15.25;;;;;6.46;71.06;100487.88;5030278;28;45815;-82
2022/12/08 10:21:57;;;;;;;;;18.00;17.00;;;;;6.69;70.88;100536.81;5029201;28;45712;-80
2022/12/08 10:24:36;;;;;;;;;22.00;19.00;;;;;6.81;71.12;100536.50;5045040;28;45629;-80
2022/12/08 10:27:02;;;;;;;;;19.25;16.50;;;;;6.79;70.87;100532.03;5029601;28;45317;-79
2022/12/08 10:29:27;;;;;;;;;16.75;16.75;;;;;6.83;71.28;100536.56;5030590;28;45377;-80
2022/12/08 10:31:56;;;;;;;;;18.50;15.50;;;;;6.85;70.90;100529.72;5029475;28;45446;-80
2022/12/08 10:34:23;;;;;;;;;11.25;9.50;;;;;6.84;70.72;100531.41;5030428;28;45464;-80
2022/12/08 10:36:57;;;;;;;;;15.75;15.00;;;;;6.69;70.83;100501.97;5029831;28;46054;-80
2022/12/08 10:39:42;;;;;;;;;16.25;15.75;;;;;6.71;71.00;100503.84;5030136;28;45365;-80
2022/12/08 10:42:13;;;;;;;;;18.75;15.75;;;;;6.88;71.02;100519.41;5029965;28;45565;-80
2022/12/08 10:44:58;;;;;;;;;18.00;15.00;;;;;6.93;70.83;100513.56;5030219;28;45847;-82
2022/12/08 10:47:26;;;;;;;;;16.00;14.50;;;;;6.55;70.79;100438.72;5030071;28;45519;-79
2022/12/08 10:50:09;;;;;;;;;17.50;16.50;;;;;6.94;70.67;100504.00;5029801;28;45366;-80
2022/12/08 10:52:39;;;;;;;;;19.25;18.50;;;;;6.94;70.87;100499.66;5030154;28;45458;-82
2022/12/08 10:55:13;;;;;;;;;19.25;16.75;;;;;6.96;70.25;100497.13;5030034;28;45376;-79
2022/12/08 10:57:39;;;;;;;;;20.50;16.25;;;;;6.71;70.30;100456.84;5029781;28;46264;-82
2022/12/08 11:00:05;;;;;;;;;19.67;17.67;;;;;6.88;70.60;100488.03;5028564;28;58786;-80
2022/12/08 11:02:30;;;;;;;;;20.25;17.00;;;;;6.82;70.83;100480.84;5030139;28;45313;-80
2022/12/08 11:05:00;;;;;;;;;21.00;20.67;;;;;6.89;70.98;100495.94;5029147;28;50754;-82
2022/12/08 11:07:26;;;;;;;;;22.75;20.00;;;;;6.89;70.34;100482.88;5029543;28;45514;-81
2022/12/08 11:09:57;;;;;;;;;25.25;20.00;;;;;6.76;71.03;100456.16;5029477;28;45703;-84
2022/12/08 11:12:26;;;;;;;;;20.50;19.00;;;;;6.94;70.73;100481.38;5029940;28;45800;-85
2022/12/08 11:15:02;;;;;;;;;67.50;50.50;;;;;6.68;70.11;100427.09;5028964;28;45853;-82
2022/12/08 11:17:38;;;;;;;;;20.75;19.25;;;;;6.71;70.50;100435.06;5029913;28;45403;-80
2022/12/08 11:20:22;;;;;;;;;25.00;21.50;;;;;6.62;70.10;100435.53;5027723;28;45516;-81
2022/12/08 11:22:54;;;;;;;;;23.50;21.25;;;;;6.79;70.53;100464.13;5028906;28;45466;-80
2022/12/08 11:25:24;;;;;;;;;23.50;20.75;;;;;6.73;70.56;100444.72;5029556;28;45748;-79
2022/12/08 11:27:57;;;;;;;;;21.00;19.75;;;;;6.55;70.31;100411.69;5028826;28;45770;-80
2022/12/08 11:30:26;;;;;;;;;23.50;19.25;;;;;6.88;70.26;100462.81;5028911;28;46206;-78
2022/12/08 11:32:56;;;;;;;;;23.00;19.75;;;;;6.91;70.27;100472.53;5029167;28;45571;-84